Time;durP1;ratioP1;P1;durP2;ratioP2;P2;SDS_P1;SDS_P2;PMS_P1;PMS_P2;Temp;Humidity;BMP_temperature;BMP_pressure;BME280_temperature;BME280_humidity;BME280_pressure;Samples;Min_cycle;Max_cycle;Signal;HPM_P1;HPM_P2
2022/01/23 00:01:28;;;;;;;;;;;20.70;37.60;;;;;;6313655;28;19938;-48
2022/01/23 00:04:30;;;;;;;;;;;21.10;37.90;;;;;;6321326;28;20345;-44
2022/01/23 00:07:32;;;;;;;;;;;20.30;38.10;;;;;;6323826;28;20813;-45
2022/01/23 00:10:34;;;;;;;;;;;20.30;37.50;;;;;;6323711;28;19931;-45
2022/01/23 00:17:14;;;;;;;;;;;20.60;37.10;;;;;;6325388;28;19928;-44
2022/01/23 00:20:12;;;;;;;;;;;20.20;37.40;;;;;;6326425;28;20499;-45
2022/01/23 00:23:26;;;;;;;;;;;20.30;37.40;;;;;;6324886;28;20055;-45
2022/01/23 00:32:56;;;;;;;;;;;20.30;37.40;;;;;;6321463;28;20689;-49
2022/01/23 00:35:58;;;;;;;;;;;20.80;37.30;;;;;;6327227;28;20008;-45
2022/01/23 00:39:03;;;;;;;;;;;20.00;37.20;;;;;;6320162;28;19935;-45
2022/01/23 00:42:04;;;;;;;;;;;20.90;37.80;;;;;;6327728;28;19928;-43
2022/01/23 00:45:24;;;;;;;;;;;20.20;37.50;;;;;;6324464;28;20044;-46
2022/01/23 00:48:30;;;;;;;;;;;20.20;37.40;;;;;;6320242;28;19927;-45
2022/01/23 00:51:33;;;;;;;;;;;20.30;37.50;;;;;;6320014;28;20751;-46
2022/01/23 00:54:34;;;;;;;;;;;20.30;37.60;;;;;;6306434;28;20005;-46
2022/01/23 00:57:36;;;;;;;;;;;20.50;37.50;;;;;;6321543;28;19939;-45
2022/01/23 01:00:37;;;;;;;;;;;20.50;37.80;;;;;;6303199;28;19945;-43
2022/01/23 01:03:39;;;;;;;;;;;20.50;37.70;;;;;;6321128;28;19928;-46
2022/01/23 01:06:41;;;;;;;;;;;20.60;37.70;;;;;;6320405;28;19939;-48
2022/01/23 01:09:48;;;;;;;;;;;20.90;37.80;;;;;;6328599;28;20133;-48
2022/01/23 01:12:52;;;;;;;;;;;20.20;37.40;;;;;;6331097;28;19932;-45
2022/01/23 01:16:02;;;;;;;;;;;20.10;37.40;;;;;;6328466;28;19931;-47
2022/01/23 01:32:10;;;;;;;;;;;20.20;37.50;;;;;;6325800;28;19992;-49
2022/01/23 01:35:20;;;;;;;;;;;20.40;37.70;;;;;;6326776;28;19927;-43
2022/01/23 01:38:24;;;;;;;;;;;20.50;37.60;;;;;;6317909;28;19932;-42
2022/01/23 01:41:26;;;;;;;;;;;20.40;37.60;;;;;;6328096;28;19927;-44
2022/01/23 01:44:28;;;;;;;;;;;20.00;37.50;;;;;;6324760;28;19928;-43
2022/01/23 01:47:32;;;;;;;;;;;20.20;37.70;;;;;;6306131;28;19927;-46
2022/01/23 01:50:46;;;;;;;;;;;20.30;37.70;;;;;;6322753;28;19996;-46
2022/01/23 01:53:52;;;;;;;;;;;20.20;37.60;;;;;;6309684;28;19983;-43
2022/01/23 01:57:05;;;;;;;;;;;20.10;37.50;;;;;;6324841;28;20653;-43
2022/01/23 02:00:26;;;;;;;;;;;20.20;37.50;;;;;;6318259;28;19950;-46
2022/01/23 02:10:10;;;;;;;;;;;20.70;37.90;;;;;;6315653;28;20012;-44
2022/01/23 02:13:13;;;;;;;;;;;20.20;37.70;;;;;;6305772;28;19928;-45
2022/01/23 02:16:38;;;;;;;;;;;20.20;37.60;;;;;;6317560;28;19928;-48
2022/01/23 02:23:22;;;;;;;;;;;20.10;37.50;;;;;;6323133;28;20000;-45
2022/01/23 02:53:13;;;;;;;;;;;20.10;37.60;;;;;;6309339;28;19978;-43
2022/01/23 02:56:20;;;;;;;;;;;20.30;37.80;;;;;;6299143;28;19991;-42
2022/01/23 02:59:25;;;;;;;;;;;19.80;37.70;;;;;;6316943;28;19938;-42
2022/01/23 03:02:37;;;;;;;;;;;20.00;37.60;;;;;;6318139;28;19946;-42
2022/01/23 03:06:10;;;;;;;;;;;20.30;37.70;;;;;;6309347;28;19938;-42
2022/01/23 03:09:55;;;;;;;;;;;20.30;37.80;;;;;;6296854;28;20399;-44
2022/01/23 03:16:17;;;;;;;;;;;20.80;38.10;;;;;;6313516;28;19939;-42
2022/01/23 03:32:23;;;;;;;;;;;20.40;38.00;;;;;;6319480;28;19986;-41
2022/01/23 03:35:24;;;;;;;;;;;20.00;37.70;;;;;;6319462;28;20131;-42
2022/01/23 03:38:26;;;;;;;;;;;20.20;37.80;;;;;;6319212;28;20715;-42
2022/01/23 03:41:27;;;;;;;;;;;19.90;37.80;;;;;;6317940;28;20138;-45
2022/01/23 03:44:29;;;;;;;;;;;20.40;38.10;;;;;;6322158;28;20219;-42
2022/01/23 03:47:37;;;;;;;;;;;20.70;38.20;;;;;;6318561;28;20386;-42
2022/01/23 03:50:39;;;;;;;;;;;20.40;38.00;;;;;;6320639;28;19946;-41
2022/01/23 03:53:41;;;;;;;;;;;20.20;37.80;;;;;;6319012;28;20264;-41
2022/01/23 03:56:43;;;;;;;;;;;20.00;37.80;;;;;;6303705;28;20276;-41
2022/01/23 03:59:44;;;;;;;;;;;20.10;37.90;;;;;;6318218;28;19928;-42
2022/01/23 04:02:46;;;;;;;;;;;20.10;38.00;;;;;;6320476;28;19980;-42
2022/01/23 04:05:56;;;;;;;;;;;20.30;37.90;;;;;;6314248;28;20226;-42
2022/01/23 04:08:57;;;;;;;;;;;20.30;37.90;;;;;;6317384;28;19931;-42
2022/01/23 04:12:00;;;;;;;;;;;20.20;38.70;;;;;;6318509;28;19996;-42
2022/01/23 04:15:13;;;;;;;;;;;20.40;38.10;;;;;;6318962;28;19934;-42
2022/01/23 04:19:08;;;;;;;;;;;20.40;37.40;;;;;;6310804;28;20707;-42
2022/01/23 04:35:13;;;;;;;;;;;20.50;38.20;;;;;;6318034;28;19927;-42
2022/01/23 05:01:04;;;;;;;;;;;19.80;37.70;;;;;;6317402;28;19928;-41
2022/01/23 05:04:19;;;;;;;;;;;20.10;38.00;;;;;;6312327;28;20083;-42
2022/01/23 05:07:40;;;;;;;;;;;19.90;37.90;;;;;;6313333;28;19927;-42
2022/01/23 05:10:53;;;;;;;;;;;19.90;37.90;;;;;;6317770;28;20582;-41
2022/01/23 05:14:13;;;;;;;;;;;19.90;37.80;;;;;;6322842;28;20184;-42
2022/01/23 05:17:15;;;;;;;;;;;19.90;37.90;;;;;;6317121;28;19931;-42
2022/01/23 05:20:19;;;;;;;;;;;20.00;38.00;;;;;;6312791;28;19962;-44
2022/01/23 05:23:21;;;;;;;;;;;20.50;38.10;;;;;;6310674;28;20226;-42
2022/01/23 05:26:23;;;;;;;;;;;20.00;38.00;;;;;;6311108;27;19990;-44
2022/01/23 05:29:24;;;;;;;;;;;19.90;37.90;;;;;;6314799;28;19970;-42
2022/01/23 05:32:27;;;;;;;;;;;20.00;38.00;;;;;;6318982;28;20240;-41
2022/01/23 05:35:30;;;;;;;;;;;20.00;37.90;;;;;;6311975;28;20457;-42
2022/01/23 05:38:33;;;;;;;;;;;20.00;38.00;;;;;;6312709;28;20252;-43
2022/01/23 05:41:34;;;;;;;;;;;20.00;38.00;;;;;;6309874;28;19934;-42
2022/01/23 05:44:37;;;;;;;;;;;20.00;37.80;;;;;;6316482;28;19927;-42
2022/01/23 05:47:39;;;;;;;;;;;20.30;37.60;;;;;;6314388;28;20775;-44
2022/01/23 05:50:53;;;;;;;;;;;20.30;38.20;;;;;;6309724;28;20231;-44
2022/01/23 05:54:09;;;;;;;;;;;20.30;38.00;;;;;;6308687;28;19928;-42
2022/01/23 05:57:30;;;;;;;;;;;20.30;38.20;;;;;;6307113;28;19958;-43
2022/01/23 06:00:44;;;;;;;;;;;20.00;38.10;;;;;;6308963;28;20434;-42
2022/01/23 06:03:50;;;;;;;;;;;20.00;38.10;;;;;;6306163;28;19981;-41
2022/01/23 06:07:05;;;;;;;;;;;19.80;37.90;;;;;;6308609;28;20390;-43
2022/01/23 06:10:15;;;;;;;;;;;20.20;38.10;;;;;;6310931;28;20477;-41
2022/01/23 06:13:17;;;;;;;;;;;20.20;38.00;;;;;;6312535;28;20212;-43
2022/01/23 06:16:18;;;;;;;;;;;20.00;37.90;;;;;;6312521;28;20730;-43
2022/01/23 06:19:40;;;;;;;;;;;19.90;38.10;;;;;;6300292;28;20291;-42
2022/01/23 06:23:00;;;;;;;;;;;20.10;38.00;;;;;;6305252;28;20792;-42
2022/01/23 06:26:10;;;;;;;;;;;20.30;36.30;;;;;;6300658;28;20435;-42
2022/01/23 06:29:21;;;;;;;;;;;20.00;37.90;;;;;;6307790;28;19932;-42
2022/01/23 06:32:24;;;;;;;;;;;19.90;38.00;;;;;;6308132;28;20038;-43
2022/01/23 06:35:25;;;;;;;;;;;20.10;38.10;;;;;;6302748;28;20141;-43
2022/01/23 06:38:27;;;;;;;;;;;20.20;38.00;;;;;;6295541;28;20238;-42
2022/01/23 06:41:29;;;;;;;;;;;19.80;37.90;;;;;;6305723;28;19932;-44
2022/01/23 06:44:50;;;;;;;;;;;20.20;38.10;;;;;;6300737;28;20057;-41
2022/01/23 06:47:51;;;;;;;;;;;20.20;38.10;;;;;;6291427;28;20655;-41
2022/01/23 06:50:53;;;;;;;;;;;19.80;37.90;;;;;;6293332;28;19954;-42
2022/01/23 06:53:56;;;;;;;;;;;20.10;38.10;;;;;;6305936;28;20052;-43
2022/01/23 06:56:59;;;;;;;;;;;20.20;38.10;;;;;;6288759;28;20340;-43
2022/01/23 07:00:00;;;;;;;;;;;19.80;38.10;;;;;;6303296;28;19961;-42
2022/01/23 07:03:19;;;;;;;;;;;19.80;38.10;;;;;;6302883;28;19932;-42
2022/01/23 07:06:39;;;;;;;;;;;20.10;38.10;;;;;;6309655;28;20058;-43
2022/01/23 07:09:52;;;;;;;;;;;19.80;38.00;;;;;;6306599;28;20030;-45
2022/01/23 07:12:57;;;;;;;;;;;19.90;38.10;;;;;;6312451;28;20363;-43
2022/01/23 07:16:06;;;;;;;;;;;19.90;38.10;;;;;;6307496;28;20178;-42
2022/01/23 07:19:19;;;;;;;;;;;19.80;37.90;;;;;;6308884;28;19968;-43
2022/01/23 07:22:26;;;;;;;;;;;20.10;38.20;;;;;;6311266;28;19927;-41
2022/01/23 07:25:28;;;;;;;;;;;20.20;38.30;;;;;;6307228;28;20692;-42
2022/01/23 07:28:37;;;;;;;;;;;20.30;38.10;;;;;;6291877;28;19927;-43
2022/01/23 07:31:55;;;;;;;;;;;20.10;38.10;;;;;;6312706;28;19927;-44
2022/01/23 07:34:57;;;;;;;;;;;19.80;38.00;;;;;;6309256;28;19943;-44
2022/01/23 07:37:59;;;;;;;;;;;20.20;38.10;;;;;;6308283;28;19927;-42
2022/01/23 07:41:17;;;;;;;;;;;19.80;37.90;;;;;;6303055;28;20509;-42
2022/01/23 07:44:30;;;;;;;;;;;20.30;38.20;;;;;;6306389;28;19952;-42
2022/01/23 07:47:49;;;;;;;;;;;19.80;38.00;;;;;;6309235;28;19927;-42
2022/01/23 07:51:07;;;;;;;;;;;20.00;38.10;;;;;;6312685;28;19969;-42
2022/01/23 07:54:28;;;;;;;;;;;19.80;38.10;;;;;;6305574;28;19939;-42
2022/01/23 07:57:52;;;;;;;;;;;20.00;38.20;;;;;;6313518;28;20062;-42
2022/01/23 08:00:58;;;;;;;;;;;20.30;37.90;;;;;;6306463;28;19931;-42
2022/01/23 08:04:00;;;;;;;;;;;19.80;38.10;;;;;;6310836;28;20443;-42
2022/01/23 08:07:11;;;;;;;;;;;19.80;38.10;;;;;;6306706;28;19928;-43
2022/01/23 08:10:32;;;;;;;;;;;19.80;38.00;;;;;;6303256;28;19928;-42
2022/01/23 08:13:34;;;;;;;;;;;20.10;38.20;;;;;;6299922;28;20453;-42
2022/01/23 08:16:36;;;;;;;;;;;19.90;38.10;;;;;;6298062;28;19935;-41
2022/01/23 08:19:39;;;;;;;;;;;19.80;38.10;;;;;;6314074;28;20484;-45
2022/01/23 08:22:40;;;;;;;;;;;20.00;38.10;;;;;;6311073;28;19978;-42
2022/01/23 08:25:42;;;;;;;;;;;19.70;38.10;;;;;;6306992;27;19967;-43
2022/01/23 08:28:44;;;;;;;;;;;20.10;38.30;;;;;;6306442;28;19959;-43
2022/01/23 08:31:45;;;;;;;;;;;20.20;38.10;;;;;;6315064;28;20391;-45
2022/01/23 08:34:46;;;;;;;;;;;20.30;38.30;;;;;;6314537;28;20456;-41
2022/01/23 08:37:48;;;;;;;;;;;20.00;38.20;;;;;;6315647;28;20388;-43
2022/01/23 08:41:49;;;;;;;;;;;20.20;38.30;;;;;;6311823;28;20753;-44
2022/01/23 08:44:21;;;;;;;;;;;19.90;38.10;;;;;;6292112;28;19958;-42
2022/01/23 08:47:23;;;;;;;;;;;20.20;38.30;;;;;;6309972;28;19927;-42
2022/01/23 08:50:25;;;;;;;;;;;20.20;37.70;;;;;;6312505;28;20335;-42
2022/01/23 08:53:26;;;;;;;;;;;20.20;38.30;;;;;;6310204;28;20034;-42
2022/01/23 08:56:28;;;;;;;;;;;19.80;38.20;;;;;;6306029;28;20494;-41
2022/01/23 08:59:30;;;;;;;;;;;19.90;38.20;;;;;;6313156;28;20391;-42
2022/01/23 09:02:31;;;;;;;;;;;20.20;38.20;;;;;;6313113;28;20327;-43
2022/01/23 09:05:32;;;;;;;;;;;19.90;38.20;;;;;;6293242;28;20046;-42
2022/01/23 09:08:37;;;;;;;;;;;20.00;38.30;;;;;;6305188;28;19939;-42
2022/01/23 09:11:41;;;;;;;;;;;19.90;38.10;;;;;;6307882;28;20705;-41
2022/01/23 09:14:42;;;;;;;;;;;19.80;38.00;;;;;;6310261;28;20434;-41
2022/01/23 09:17:44;;;;;;;;;;;19.70;38.00;;;;;;6311463;28;20008;-43
2022/01/23 09:20:45;;;;;;;;;;;20.00;38.10;;;;;;6313094;28;20062;-42
2022/01/23 09:23:47;;;;;;;;;;;20.20;37.60;;;;;;6309060;28;19935;-42
2022/01/23 09:26:53;;;;;;;;;;;19.90;38.00;;;;;;6309274;27;19978;-44
2022/01/23 09:29:56;;;;;;;;;;;19.90;37.90;;;;;;6293599;28;20169;-42
2022/01/23 09:32:57;;;;;;;;;;;20.20;37.80;;;;;;6307005;28;20310;-43
2022/01/23 09:35:58;;;;;;;;;;;20.40;38.10;;;;;;6311601;28;20722;-43
2022/01/23 09:38:59;;;;;;;;;;;20.00;37.80;;;;;;6309238;28;20655;-42
2022/01/23 09:42:22;;;;;;;;;;;19.80;37.60;;;;;;6297700;28;19932;-42
2022/01/23 09:45:25;;;;;;;;;;;20.10;37.60;;;;;;6316898;28;20035;-43
2022/01/23 09:48:27;;;;;;;;;;;20.10;37.60;;;;;;6312276;28;19927;-42
2022/01/23 09:51:29;;;;;;;;;;;20.20;37.60;;;;;;6294488;28;19975;-42
2022/01/23 09:54:31;;;;;;;;;;;20.30;37.40;;;;;;6305058;28;20031;-43
2022/01/23 09:57:33;;;;;;;;;;;20.20;37.40;;;;;;6310619;28;19973;-42
2022/01/23 10:00:36;;;;;;;;;;;20.20;37.50;;;;;;6308000;28;20054;-42
2022/01/23 10:03:38;;;;;;;;;;;20.90;37.70;;;;;;6306248;28;20513;-42
2022/01/23 10:06:39;;;;;;;;;;;20.60;37.60;;;;;;6310693;28;19967;-42
2022/01/23 10:09:41;;;;;;;;;;;20.30;37.30;;;;;;6307059;28;19927;-44
2022/01/23 10:12:43;;;;;;;;;;;20.60;37.50;;;;;;6304954;28;20445;-41
2022/01/23 10:15:45;;;;;;;;;;;20.30;37.10;;;;;;6296359;28;19928;-42
2022/01/23 10:18:48;;;;;;;;;;;20.40;37.20;;;;;;6286649;28;19928;-41
2022/01/23 10:21:49;;;;;;;;;;;20.20;37.10;;;;;;6311642;28;19962;-42
2022/01/23 10:24:51;;;;;;;;;;;20.40;37.10;;;;;;6305865;28;19931;-42
2022/01/23 10:27:54;;;;;;;;;;;20.60;37.20;;;;;;6307002;28;20210;-41
2022/01/23 10:30:57;;;;;;;;;;;20.70;37.10;;;;;;6303497;28;20467;-42
2022/01/23 10:33:59;;;;;;;;;;;20.70;37.10;;;;;;6309802;28;20355;-41
2022/01/23 10:37:00;;;;;;;;;;;20.80;37.30;;;;;;6308226;27;20288;-41
2022/01/23 10:40:06;;;;;;;;;;;20.40;37.00;;;;;;6307648;28;20470;-41
2022/01/23 10:46:44;;;;;;;;;;;20.50;36.80;;;;;;6294065;28;20030;-42
2022/01/23 10:49:47;;;;;;;;;;;20.50;36.90;;;;;;6309763;28;19935;-42
2022/01/23 10:52:49;;;;;;;;;;;20.60;36.80;;;;;;6310056;28;20557;-42
2022/01/23 10:55:51;;;;;;;;;;;21.00;36.90;;;;;;6283118;28;20003;-42
2022/01/23 10:58:57;;;;;;;;;;;21.00;37.10;;;;;;6312283;28;20377;-42
2022/01/23 11:02:01;;;;;;;;;;;20.60;36.60;;;;;;6313742;28;20363;-43
2022/01/23 11:05:04;;;;;;;;;;;21.20;36.70;;;;;;6283903;28;19971;-42
2022/01/23 11:08:17;;;;;;;;;;;20.90;36.80;;;;;;6288797;28;20231;-42
2022/01/23 11:11:19;;;;;;;;;;;20.90;36.60;;;;;;6299232;28;19994;-40
2022/01/23 11:17:47;;;;;;;;;;;21.00;36.80;;;;;;6294934;28;19927;-42
2022/01/23 11:20:49;;;;;;;;;;;21.10;36.70;;;;;;6301362;28;20472;-43
2022/01/23 11:23:54;;;;;;;;;;;20.70;36.40;;;;;;6311533;28;20540;-43
2022/01/23 11:27:00;;;;;;;;;;;21.20;36.60;;;;;;6289133;28;19931;-42
2022/01/23 11:30:04;;;;;;;;;;;20.80;36.40;;;;;;6289648;28;20035;-45
2022/01/23 11:33:09;;;;;;;;;;;21.10;36.60;;;;;;6307306;28;19935;-43
2022/01/23 11:36:10;;;;;;;;;;;21.40;36.60;;;;;;6294420;28;20050;-43
2022/01/23 11:39:16;;;;;;;;;;;21.00;36.40;;;;;;6309450;28;20136;-42
2022/01/23 11:55:35;;;;;;;;;;;21.40;36.10;;;;;;6308393;28;20055;-42
2022/01/23 11:58:36;;;;;;;;;;;21.40;36.30;;;;;;6294425;28;19970;-42
2022/01/23 12:01:39;;;;;;;;;;;21.20;36.30;;;;;;6309798;28;20050;-42
2022/01/23 12:04:42;;;;;;;;;;;21.30;36.30;;;;;;6299764;28;19927;-42
2022/01/23 12:07:44;;;;;;;;;;;21.50;36.30;;;;;;6307923;28;20390;-42
2022/01/23 12:11:05;;;;;;;;;;;21.20;36.10;;;;;;6295226;28;20322;-41
2022/01/23 12:17:40;;;;;;;;;;;21.30;36.10;;;;;;6292716;28;19931;-42
2022/01/23 12:20:42;;;;;;;;;;;21.40;36.00;;;;;;6306564;28;20591;-41
2022/01/23 12:23:58;;;;;;;;;;;21.00;36.00;;;;;;6309905;28;20014;-42
2022/01/23 12:27:15;;;;;;;;;;;21.20;36.00;;;;;;6297282;28;20551;-41
2022/01/23 12:30:31;;;;;;;;;;;21.50;36.20;;;;;;6300121;28;22552;-42
2022/01/23 12:33:44;;;;;;;;;;;21.20;36.00;;;;;;6314641;28;20526;-44
2022/01/23 12:36:54;;;;;;;;;;;21.10;35.80;;;;;;6305664;28;20357;-42
2022/01/23 12:40:08;;;;;;;;;;;21.80;36.30;;;;;;6314470;28;20686;-42
2022/01/23 12:43:11;;;;;;;;;;;21.30;36.00;;;;;;6316871;28;19971;-42
2022/01/23 12:46:21;;;;;;;;;;;21.20;35.90;;;;;;6313272;28;19939;-42
2022/01/23 12:49:24;;;;;;;;;;;21.60;36.10;;;;;;6312318;28;20299;-42
2022/01/23 12:52:26;;;;;;;;;;;21.20;35.90;;;;;;6299679;28;20226;-44
2022/01/23 12:55:28;;;;;;;;;;;21.40;36.00;;;;;;6315513;28;20314;-42
2022/01/23 12:58:31;;;;;;;;;;;21.30;36.10;;;;;;6310554;28;20647;-42
2022/01/23 13:01:33;;;;;;;;;;;21.30;35.80;;;;;;6314844;28;20628;-42
2022/01/23 13:04:38;;;;;;;;;;;21.30;36.00;;;;;;6290929;28;20957;-41
2022/01/23 13:07:46;;;;;;;;;;;21.50;35.90;;;;;;6286778;28;19931;-42
2022/01/23 13:11:07;;;;;;;;;;;21.80;36.10;;;;;;6303350;28;20315;-44
2022/01/23 13:14:08;;;;;;;;;;;21.80;36.10;;;;;;6308423;28;19948;-43
2022/01/23 13:17:27;;;;;;;;;;;21.30;35.90;;;;;;6307502;28;20450;-42
2022/01/23 13:30:22;;;;;;;;;;;21.40;35.80;;;;;;6298638;28;20327;-44
2022/01/23 13:33:25;;;;;;;;;;;21.90;36.10;;;;;;6309320;28;20050;-43
2022/01/23 13:36:26;;;;;;;;;;;21.30;35.70;;;;;;6310659;28;20804;-43
2022/01/23 13:39:31;;;;;;;;;;;21.40;36.00;;;;;;6303986;28;20095;-42
2022/01/23 13:42:49;;;;;;;;;;;21.70;35.90;;;;;;6309140;28;20010;-42
2022/01/23 13:52:36;;;;;;;;;;;21.40;35.70;;;;;;6302908;28;20691;-43
2022/01/23 13:59:04;;;;;;;;;;;21.90;36.00;;;;;;6306945;28;19927;-42
2022/01/23 14:02:16;;;;;;;;;;;22.00;35.90;;;;;;6308122;28;20062;-41
2022/01/23 14:05:20;;;;;;;;;;;21.60;35.80;;;;;;6292298;28;19973;-42
2022/01/23 14:08:21;;;;;;;;;;;21.80;35.80;;;;;;6289817;28;19928;-42
2022/01/23 14:11:26;;;;;;;;;;;21.70;36.00;;;;;;6304419;28;20375;-41
2022/01/23 14:14:27;;;;;;;;;;;22.00;35.00;;;;;;6306778;28;20478;-41
2022/01/23 14:17:31;;;;;;;;;;;21.80;35.90;;;;;;6304589;28;19928;-43
2022/01/23 14:20:35;;;;;;;;;;;21.60;35.70;;;;;;6316204;28;20416;-43
2022/01/23 14:23:36;;;;;;;;;;;21.60;35.70;;;;;;6303649;28;19932;-42
2022/01/23 14:26:38;;;;;;;;;;;21.80;35.80;;;;;;6285475;28;19963;-45
2022/01/23 14:29:46;;;;;;;;;;;21.80;35.90;;;;;;6310822;28;19935;-44
2022/01/23 14:32:51;;;;;;;;;;;21.50;35.60;;;;;;6302804;28;20231;-44
2022/01/23 14:35:52;;;;;;;;;;;21.60;35.70;;;;;;6301304;28;19932;-42
2022/01/23 14:38:54;;;;;;;;;;;21.90;35.90;;;;;;6310010;28;20032;-42
2022/01/23 14:42:08;;;;;;;;;;;22.20;35.90;;;;;;6302694;28;20046;-42
2022/01/23 14:45:10;;;;;;;;;;;22.00;35.90;;;;;;6297756;28;20464;-42
2022/01/23 14:48:12;;;;;;;;;;;21.70;35.70;;;;;;6299726;28;20002;-42
2022/01/23 14:51:18;;;;;;;;;;;21.60;35.60;;;;;;6307184;28;20033;-44
2022/01/23 14:54:20;;;;;;;;;;;21.60;35.60;;;;;;6301585;28;21722;-42
2022/01/23 14:57:23;;;;;;;;;;;22.00;35.60;;;;;;6302499;28;20219;-43
2022/01/23 15:00:24;;;;;;;;;;;21.60;35.60;;;;;;6307780;28;20305;-43
2022/01/23 15:03:27;;;;;;;;;;;21.70;35.70;;;;;;6300422;28;19928;-42
2022/01/23 15:06:28;;;;;;;;;;;21.60;35.60;;;;;;6283245;28;20844;-42
2022/01/23 15:09:30;;;;;;;;;;;21.50;35.70;;;;;;6296608;28;19971;-44
2022/01/23 15:12:32;;;;;;;;;;;21.70;35.70;;;;;;6302643;28;19932;-43
2022/01/23 15:15:33;;;;;;;;;;;22.10;35.80;;;;;;6295807;28;20058;-42
2022/01/23 15:18:35;;;;;;;;;;;21.80;36.30;;;;;;6279789;28;19938;-42
2022/01/23 15:21:36;;;;;;;;;;;21.60;35.60;;;;;;6281166;28;20302;-42
2022/01/23 15:24:38;;;;;;;;;;;21.80;35.70;;;;;;6307727;28;19935;-43
2022/01/23 15:27:40;;;;;;;;;;;21.60;35.60;;;;;;6293944;28;20388;-42
2022/01/23 15:30:42;;;;;;;;;;;21.90;35.70;;;;;;6299149;28;19980;-44
2022/01/23 15:33:44;;;;;;;;;;;22.00;35.70;;;;;;6310868;28;20597;-43
2022/01/23 15:36:46;;;;;;;;;;;21.60;35.40;;;;;;6285205;28;19988;-42
2022/01/23 15:39:48;;;;;;;;;;;21.50;35.70;;;;;;6299285;28;20761;-42
2022/01/23 15:42:51;;;;;;;;;;;21.60;35.60;;;;;;6301023;28;19932;-42
2022/01/23 15:45:53;;;;;;;;;;;22.10;35.80;;;;;;6296471;28;20026;-42
2022/01/23 15:48:54;;;;;;;;;;;22.10;35.70;;;;;;6302805;28;20374;-43
2022/01/23 15:51:56;;;;;;;;;;;21.60;35.60;;;;;;6302292;28;19974;-41
2022/01/23 15:54:57;;;;;;;;;;;21.80;35.70;;;;;;6308047;28;20620;-42
2022/01/23 15:57:59;;;;;;;;;;;21.70;35.60;;;;;;6304356;28;19971;-42
2022/01/23 16:01:01;;;;;;;;;;;21.70;35.60;;;;;;6304700;28;19933;-47
2022/01/23 16:04:03;;;;;;;;;;;21.70;35.60;;;;;;6308402;28;20018;-43
2022/01/23 16:07:05;;;;;;;;;;;21.70;35.50;;;;;;6302596;28;20108;-43
2022/01/23 16:10:07;;;;;;;;;;;21.60;35.40;;;;;;6292868;28;19938;-42
2022/01/23 16:13:09;;;;;;;;;;;21.60;35.40;;;;;;6303651;28;19932;-44
2022/01/23 16:16:10;;;;;;;;;;;22.30;35.80;;;;;;6308418;28;20024;-43
2022/01/23 16:19:12;;;;;;;;;;;21.70;35.60;;;;;;6304762;28;19962;-42
2022/01/23 16:22:13;;;;;;;;;;;21.60;35.60;;;;;;6307081;28;20052;-42
2022/01/23 16:25:16;;;;;;;;;;;21.80;35.70;;;;;;6305742;28;20331;-42
2022/01/23 16:28:18;;;;;;;;;;;21.60;35.50;;;;;;6303769;28;19928;-42
2022/01/23 16:31:20;;;;;;;;;;;21.70;35.50;;;;;;6301485;28;20840;-42
2022/01/23 16:34:21;;;;;;;;;;;21.70;35.50;;;;;;6306553;27;19936;-43
2022/01/23 16:37:23;;;;;;;;;;;21.80;35.50;;;;;;6307948;28;20017;-44
2022/01/23 16:40:24;;;;;;;;;;;21.90;35.70;;;;;;6306447;28;20050;-43
2022/01/23 16:43:27;;;;;;;;;;;21.90;35.60;;;;;;6303423;28;20471;-42
2022/01/23 16:46:29;;;;;;;;;;;22.20;35.70;;;;;;6303787;28;19927;-42
2022/01/23 16:49:30;;;;;;;;;;;21.80;35.60;;;;;;6292380;28;20565;-42
2022/01/23 16:52:32;;;;;;;;;;;21.70;35.60;;;;;;6290825;28;20382;-42
2022/01/23 16:55:33;;;;;;;;;;;21.90;35.80;;;;;;6303102;28;20744;-44
2022/01/23 16:58:37;;;;;;;;;;;22.40;35.90;;;;;;6307434;28;20018;-42
2022/01/23 17:01:39;;;;;;;;;;;21.90;35.60;;;;;;6305345;28;19932;-43
2022/01/23 17:04:41;;;;;;;;;;;21.70;35.40;;;;;;6310494;28;19932;-43
2022/01/23 17:07:43;;;;;;;;;;;21.60;35.40;;;;;;6308598;28;19959;-43
2022/01/23 17:10:45;;;;;;;;;;;21.90;35.70;;;;;;6306827;28;20030;-42
2022/01/23 17:13:47;;;;;;;;;;;22.20;35.70;;;;;;6285032;28;19931;-43
2022/01/23 17:16:49;;;;;;;;;;;22.20;35.70;;;;;;6310938;28;20422;-42
2022/01/23 17:19:50;;;;;;;;;;;21.80;35.50;;;;;;6312037;28;19932;-44
2022/01/23 17:22:52;;;;;;;;;;;21.60;35.60;;;;;;6304291;28;19932;-42
2022/01/23 17:25:53;;;;;;;;;;;21.50;35.50;;;;;;6303041;28;20010;-43
2022/01/23 17:28:55;;;;;;;;;;;21.70;35.70;;;;;;6312866;28;20046;-41
2022/01/23 17:31:56;;;;;;;;;;;21.60;35.60;;;;;;6309927;28;20300;-41
2022/01/23 17:34:58;;;;;;;;;;;21.50;35.70;;;;;;6289362;28;20176;-43
2022/01/23 17:37:59;;;;;;;;;;;22.00;35.90;;;;;;6306108;28;20058;-42
2022/01/23 17:41:00;;;;;;;;;;;21.70;35.90;;;;;;6307349;28;20030;-42
2022/01/23 17:44:02;;;;;;;;;;;21.90;36.00;;;;;;6300223;28;19931;-42
2022/01/23 17:47:08;;;;;;;;;;;22.00;36.00;;;;;;6293154;28;19936;-44
2022/01/23 17:50:19;;;;;;;;;;;21.90;36.00;;;;;;6297137;28;20062;-42
2022/01/23 17:53:20;;;;;;;;;;;21.30;35.80;;;;;;6303795;28;19931;-42
2022/01/23 17:56:21;;;;;;;;;;;21.80;36.10;;;;;;6301636;28;19938;-42
2022/01/23 17:59:23;;;;;;;;;;;21.80;35.90;;;;;;6303266;28;20453;-42
2022/01/23 18:02:27;;;;;;;;;;;21.40;36.00;;;;;;6311395;28;20825;-42
2022/01/23 18:05:33;;;;;;;;;;;20.80;35.60;;;;;;6296846;28;19996;-42
2022/01/23 18:08:34;;;;;;;;;;;21.50;36.00;;;;;;6292991;28;20052;-42
2022/01/23 18:11:37;;;;;;;;;;;21.50;36.20;;;;;;6284839;28;20020;-42
2022/01/23 18:14:44;;;;;;;;;;;21.40;36.20;;;;;;6289292;28;20068;-42
2022/01/23 18:17:45;;;;;;;;;;;21.80;36.30;;;;;;6305452;28;20668;-45
2022/01/23 18:20:47;;;;;;;;;;;21.20;36.10;;;;;;6299515;28;19958;-43
2022/01/23 18:23:48;;;;;;;;;;;21.20;36.10;;;;;;6304954;28;20791;-42
2022/01/23 18:26:50;;;;;;;;;;;21.40;36.30;;;;;;6297323;28;19931;-42
2022/01/23 18:29:52;;;;;;;;;;;21.30;36.30;;;;;;6305185;28;20422;-43
2022/01/23 18:32:55;;;;;;;;;;;21.10;36.20;;;;;;6302365;28;19982;-42
2022/01/23 18:35:56;;;;;;;;;;;21.20;36.30;;;;;;6304972;28;20023;-44
2022/01/23 18:38:58;;;;;;;;;;;21.00;36.20;;;;;;6299602;28;20717;-44
2022/01/23 18:41:59;;;;;;;;;;;21.10;36.30;;;;;;6307815;28;19931;-43
2022/01/23 18:45:01;;;;;;;;;;;21.10;36.40;;;;;;6311597;28;19959;-43
2022/01/23 18:48:03;;;;;;;;;;;21.50;36.50;;;;;;6314371;28;20485;-47
2022/01/23 18:51:04;;;;;;;;;;;21.00;36.30;;;;;;6308375;28;19963;-43
2022/01/23 18:54:12;;;;;;;;;;;20.90;36.30;;;;;;6308773;28;20001;-47
2022/01/23 18:57:17;;;;;;;;;;;21.00;36.40;;;;;;6282837;28;20038;-44
2022/01/23 19:00:19;;;;;;;;;;;21.00;36.50;;;;;;6306947;28;20019;-44
2022/01/23 19:03:25;;;;;;;;;;;21.00;36.60;;;;;;6312721;28;20031;-47
2022/01/23 19:06:33;;;;;;;;;;;20.90;36.50;;;;;;6314357;28;19932;-45
2022/01/23 19:09:40;;;;;;;;;;;21.10;36.60;;;;;;6312546;28;20027;-45
2022/01/23 19:12:42;;;;;;;;;;;21.40;36.90;;;;;;6313927;28;20774;-47
2022/01/23 19:15:45;;;;;;;;;;;21.30;36.90;;;;;;6312370;28;21250;-44
2022/01/23 19:18:51;;;;;;;;;;;21.40;36.80;;;;;;6308300;28;20640;-44
2022/01/23 19:21:55;;;;;;;;;;;21.00;36.80;;;;;;6312286;28;20684;-45
2022/01/23 19:25:00;;;;;;;;;;;20.80;36.70;;;;;;6307917;27;20042;-42
2022/01/23 19:28:04;;;;;;;;;;;20.80;36.70;;;;;;6301133;28;20423;-42
2022/01/23 19:31:06;;;;;;;;;;;21.00;36.60;;;;;;6299982;28;20225;-42
2022/01/23 19:34:07;;;;;;;;;;;20.70;36.60;;;;;;6300876;28;19931;-46
2022/01/23 19:37:09;;;;;;;;;;;20.80;36.80;;;;;;6312019;28;19973;-43
2022/01/23 19:40:17;;;;;;;;;;;21.10;36.80;;;;;;6315626;28;19996;-48
2022/01/23 19:43:28;;;;;;;;;;;20.50;36.40;;;;;;6311281;28;19967;-44
2022/01/23 19:46:34;;;;;;;;;;;20.70;36.60;;;;;;6289279;28;19939;-46
2022/01/23 19:49:41;;;;;;;;;;;20.70;36.50;;;;;;6311428;28;19928;-47
2022/01/23 19:52:42;;;;;;;;;;;20.70;36.80;;;;;;6312239;28;20318;-46
2022/01/23 19:55:43;;;;;;;;;;;20.70;36.80;;;;;;6312265;28;19974;-46
2022/01/23 19:58:45;;;;;;;;;;;20.60;36.70;;;;;;6307489;28;19940;-44
2022/01/23 20:01:47;;;;;;;;;;;20.80;37.00;;;;;;6284700;28;19935;-46
2022/01/23 20:04:49;;;;;;;;;;;20.80;37.00;;;;;;6297945;28;19935;-47
2022/01/23 20:07:51;;;;;;;;;;;20.60;36.80;;;;;;6299552;28;20046;-45
2022/01/23 20:11:09;;;;;;;;;;;21.00;36.90;;;;;;6305087;28;19927;-44
2022/01/23 20:14:10;;;;;;;;;;;20.80;36.90;;;;;;6302362;28;19966;-46
2022/01/23 20:17:13;;;;;;;;;;;20.70;36.90;;;;;;6308438;28;20830;-45
2022/01/23 20:20:14;;;;;;;;;;;21.30;36.90;;;;;;6310599;28;20015;-44
2022/01/23 20:23:16;;;;;;;;;;;20.90;36.90;;;;;;6314085;28;20023;-43
2022/01/23 20:26:17;;;;;;;;;;;20.50;36.90;;;;;;6308407;28;20211;-45
2022/01/23 20:29:20;;;;;;;;;;;20.80;37.00;;;;;;6314767;28;20038;-46
2022/01/23 20:32:22;;;;;;;;;;;20.60;36.90;;;;;;6320090;28;20597;-43